Time;durP1;ratioP1;P1;durP2;ratioP2;P2;SDS_P1;SDS_P2;PMS_P1;PMS_P2;Temp;Humidity;BMP_temperature;BMP_pressure;BME280_temperature;BME280_humidity;BME280_pressure;Samples;Min_cycle;Max_cycle;Signal;HPM_P1;HPM_P2
2022/12/13 00:00:42;;;;;;;7.70;6.07;;;19.20;29.50;;;;;;5050449;28;20095;-55
2022/12/13 00:03:08;;;;;;;8.05;6.13;;;19.20;29.50;;;;;;5053031;28;20028;-52
2022/12/13 00:05:41;;;;;;;9.60;5.80;;;19.20;29.50;;;;;;5051750;28;20044;-56
2022/12/13 00:08:06;;;;;;;7.57;6.15;;;19.20;29.50;;;;;;5050786;28;20356;-55
2022/12/13 00:10:32;;;;;;;8.02;6.15;;;19.20;29.50;;;;;;5051174;28;20025;-56
2022/12/13 00:12:58;;;;;;;7.40;5.80;;;19.20;29.50;;;;;;5035309;28;20106;-55
2022/12/13 00:15:24;;;;;;;8.27;6.00;;;19.20;29.50;;;;;;5032716;28;20033;-55
2022/12/13 00:17:50;;;;;;;7.30;5.50;;;19.20;29.50;;;;;;5049116;28;20021;-57
2022/12/13 00:20:15;;;;;;;7.35;5.68;;;19.10;29.50;;;;;;5052136;28;20459;-57
2022/12/13 00:22:41;;;;;;;7.00;5.60;;;19.10;29.50;;;;;;5051751;28;20029;-58
2022/12/13 00:25:07;;;;;;;7.75;6.30;;;19.10;29.50;;;;;;5049954;28;20021;-56
2022/12/13 00:27:33;;;;;;;6.97;5.50;;;19.10;29.60;;;;;;5032585;28;20393;-55
2022/12/13 00:29:59;;;;;;;6.53;5.43;;;19.10;29.50;;;;;;5018179;28;20357;-54
2022/12/13 00:32:24;;;;;;;8.48;5.70;;;19.10;29.50;;;;;;5051307;28;20091;-56
2022/12/13 00:34:50;;;;;;;7.30;5.57;;;19.10;29.50;;;;;;5052494;28;20037;-53
2022/12/13 00:37:16;;;;;;;6.40;5.15;;;19.10;29.50;;;;;;5034154;28;20428;-54
2022/12/13 00:39:42;;;;;;;7.53;5.55;;;19.10;29.50;;;;;;5033857;28;20033;-52
2022/12/13 00:42:08;;;;;;;8.68;5.43;;;19.10;29.50;;;;;;5051932;28;20052;-56
2022/12/13 00:44:33;;;;;;;8.35;6.07;;;19.10;29.50;;;;;;5052268;28;20068;-54
2022/12/13 00:46:59;;;;;;;7.30;5.53;;;19.10;29.50;;;;;;5049943;28;21189;-56
2022/12/13 00:49:25;;;;;;;9.50;6.03;;;19.00;29.50;;;;;;5051802;28;20029;-58
2022/12/13 00:51:51;;;;;;;7.43;5.72;;;19.10;29.60;;;;;;5050114;28;20027;-57
2022/12/13 00:54:17;;;;;;;7.40;5.43;;;19.00;29.50;;;;;;5050599;28;20036;-52
2022/12/13 00:56:43;;;;;;;6.72;5.60;;;19.00;29.50;;;;;;5051805;28;20467;-53
2022/12/13 00:59:12;;;;;;;8.38;6.00;;;19.00;29.50;;;;;;5050729;28;20107;-52
2022/12/13 01:01:39;;;;;;;7.43;5.53;;;19.00;29.50;;;;;;5050742;28;20047;-57
2022/12/13 01:04:05;;;;;;;7.97;5.65;;;19.00;29.50;;;;;;5050789;28;20025;-57
2022/12/13 01:06:38;;;;;;;6.85;5.45;;;19.00;29.50;;;;;;5052213;28;20021;-57
2022/12/13 01:09:07;;;;;;;7.25;5.30;;;19.00;29.50;;;;;;5028038;28;20036;-58
2022/12/13 01:11:33;;;;;;;9.93;5.82;;;19.00;29.50;;;;;;5051509;28;20032;-55
2022/12/13 01:13:59;;;;;;;6.75;5.10;;;19.00;29.50;;;;;;5033077;28;20049;-57
2022/12/13 01:16:25;;;;;;;6.95;5.20;;;18.90;29.40;;;;;;5051946;28;20025;-58
2022/12/13 01:18:51;;;;;;;7.90;5.32;;;19.00;29.40;;;;;;5032157;28;20425;-56
2022/12/13 01:21:19;;;;;;;7.15;5.30;;;18.90;29.40;;;;;;5034223;28;20428;-56
2022/12/13 01:23:46;;;;;;;7.75;5.80;;;18.90;29.40;;;;;;5051058;28;20029;-56
2022/12/13 01:26:15;;;;;;;8.45;5.30;;;18.90;29.40;;;;;;5051109;28;20068;-55
2022/12/13 01:28:41;;;;;;;6.53;5.20;;;18.90;29.40;;;;;;5051098;28;20037;-54
2022/12/13 01:31:10;;;;;;;6.47;4.80;;;18.90;29.40;;;;;;5051121;28;20175;-56
2022/12/13 01:33:36;;;;;;;5.53;4.90;;;18.90;29.40;;;;;;5050294;28;20052;-55
2022/12/13 01:36:05;;;;;;;7.30;5.43;;;18.90;29.40;;;;;;5051861;28;20065;-56
2022/12/13 01:38:31;;;;;;;8.60;5.53;;;18.90;29.40;;;;;;5049085;28;20045;-58
2022/12/13 01:40:57;;;;;;;6.57;5.22;;;18.90;29.30;;;;;;5048262;28;20037;-55
2022/12/13 01:43:27;;;;;;;7.60;5.40;;;18.80;29.30;;;;;;5051611;28;20344;-55
2022/12/13 01:45:53;;;;;;;7.65;5.45;;;18.80;29.30;;;;;;5050165;28;20036;-54
2022/12/13 01:48:26;;;;;;;6.43;5.20;;;18.90;29.40;;;;;;5050946;28;20360;-54
2022/12/13 01:50:58;;;;;;;7.03;5.15;;;18.90;29.40;;;;;;5050264;28;20475;-55
2022/12/13 01:53:28;;;;;;;6.90;4.90;;;18.80;29.40;;;;;;5045193;28;20040;-53
2022/12/13 01:56:15;;;;;;;8.00;5.30;;;18.80;29.40;;;;;;5050107;28;20032;-58
2022/12/13 01:58:41;;;;;;;6.57;5.05;;;18.80;29.40;;;;;;5048949;28;20112;-58
2022/12/13 02:01:08;;;;;;;6.85;4.85;;;18.80;29.40;;;;;;5050247;28;20037;-55
2022/12/13 02:03:34;;;;;;;7.07;4.63;;;18.80;29.40;;;;;;5051095;28;20033;-56
2022/12/13 02:06:24;;;;;;;7.45;5.57;;;18.80;29.40;;;;;;5054639;28;20036;-55
2022/12/13 02:08:50;;;;;;;7.30;5.22;;;18.80;29.40;;;;;;5050845;28;20036;-56
2022/12/13 02:11:16;;;;;;;6.20;4.85;;;18.80;29.40;;;;;;5053950;28;20044;-53
2022/12/13 02:13:42;;;;;;;7.50;4.95;;;18.80;29.30;;;;;;5053786;28;20048;-54
2022/12/13 02:16:25;;;;;;;6.72;5.22;;;18.70;29.30;;;;;;5053799;28;20029;-54
2022/12/13 02:19:16;;;;;;;6.15;4.80;;;18.70;29.20;;;;;;5051965;28;20032;-55
2022/12/13 02:21:51;;;;;;;6.95;5.32;;;18.70;29.20;;;;;;5052052;28;20043;-56
2022/12/13 02:24:35;;;;;;;;;;;18.70;29.20;;;;;;5053398;28;20025;-56
2022/12/13 02:27:14;;;;;;;6.85;4.93;;;18.70;29.20;;;;;;5053234;28;20270;-56
2022/12/13 02:30:16;;;;;;;6.43;5.05;;;18.70;29.20;;;;;;5035039;28;20040;-59
2022/12/13 02:33:05;;;;;;;7.50;5.25;;;18.70;29.20;;;;;;5022585;28;20099;-55
2022/12/13 02:35:49;;;;;;;6.65;4.90;;;18.70;29.20;;;;;;5032962;28;20395;-55
2022/12/13 02:38:43;;;;;;;6.05;4.85;;;18.60;29.20;;;;;;5028712;28;20444;-54
2022/12/13 02:41:35;;;;;;;7.82;5.13;;;18.60;29.20;;;;;;5051330;28;20054;-57
2022/12/13 02:44:17;;;;;;;7.13;4.70;;;18.60;29.20;;;;;;5051576;28;20440;-54
2022/12/13 02:46:55;;;;;;;6.03;5.05;;;18.60;29.20;;;;;;5051158;28;20025;-54
2022/12/13 02:49:24;;;;;;;6.47;4.85;;;18.60;29.20;;;;;;5052815;28;20029;-54
2022/12/13 02:51:51;;;;;;;7.15;5.00;;;18.60;29.10;;;;;;5054309;28;20039;-56
2022/12/13 02:54:17;;;;;;;6.18;4.55;;;18.60;29.10;;;;;;5053513;28;20020;-56
2022/12/13 02:56:58;;;;;;;6.50;4.82;;;18.60;29.10;;;;;;5053659;28;20060;-56
2022/12/13 02:59:29;;;;;;;6.22;4.85;;;18.50;29.10;;;;;;5053906;28;20017;-56
2022/12/13 03:02:03;;;;;;;6.43;4.90;;;18.60;29.10;;;;;;5051982;28;20120;-52
2022/12/13 03:08:14;;;;;;;6.15;5.03;;;18.60;29.20;;;;;;5052581;28;20421;-56
2022/12/13 03:11:05;;;;;;;6.78;4.85;;;18.60;29.10;;;;;;5050916;28;20045;-54
2022/12/13 03:13:51;;;;;;;7.20;5.18;;;18.50;29.10;;;;;;5052676;28;20060;-57
2022/12/13 03:16:27;;;;;;;7.53;4.85;;;18.50;29.00;;;;;;5051750;28;20353;-52
2022/12/13 03:18:58;;;;;;;9.30;5.07;;;18.50;29.10;;;;;;5054718;28;20044;-56
2022/12/13 03:21:24;;;;;;;7.50;4.93;;;18.50;29.10;;;;;;5051864;28;20048;-52
2022/12/13 03:23:50;;;;;;;6.78;5.05;;;18.50;29.00;;;;;;5051838;28;20028;-52
2022/12/13 03:26:25;;;;;;;7.50;4.78;;;18.50;29.00;;;;;;5053245;28;20021;-53
2022/12/13 03:28:51;;;;;;;6.90;5.50;;;18.50;29.00;;;;;;5049826;28;20394;-55
2022/12/13 03:31:18;;;;;;;7.10;5.32;;;18.50;29.00;;;;;;5052761;28;20047;-52
2022/12/13 03:33:44;;;;;;;6.80;4.90;;;18.50;29.00;;;;;;5051422;28;20089;-56
2022/12/13 03:36:11;;;;;;;7.85;5.32;;;18.50;29.10;;;;;;5052054;28;20118;-57
2022/12/13 03:38:38;;;;;;;6.75;5.03;;;18.50;29.10;;;;;;5051231;28;20059;-57
2022/12/13 03:41:08;;;;;;;7.28;5.25;;;18.50;29.00;;;;;;5051820;28;20406;-54
2022/12/13 03:43:34;;;;;;;6.82;4.80;;;18.40;29.00;;;;;;5053872;28;20040;-55
2022/12/13 03:46:00;;;;;;;7.20;5.65;;;18.40;29.00;;;;;;5052188;28;20107;-54
2022/12/13 03:48:26;;;;;;;6.82;5.05;;;18.40;29.00;;;;;;5052505;28;20425;-53
2022/12/13 03:50:53;;;;;;;7.72;5.43;;;18.40;28.90;;;;;;5052018;28;20053;-51
2022/12/13 03:53:21;;;;;;;8.75;5.20;;;18.40;29.40;;;;;;5050988;28;20403;-52
2022/12/13 03:55:47;;;;;;;6.85;5.38;;;18.40;28.90;;;;;;5052144;28;20025;-55
2022/12/13 03:58:13;;;;;;;5.63;4.72;;;18.40;28.90;;;;;;5049273;28;20032;-50
2022/12/13 04:00:39;;;;;;;7.30;5.57;;;18.40;28.90;;;;;;5051833;28;20059;-55
2022/12/13 04:03:05;;;;;;;6.45;4.85;;;18.40;28.90;;;;;;5034574;28;20024;-57
2022/12/13 04:05:30;;;;;;;6.88;5.22;;;18.40;29.00;;;;;;5052341;28;20021;-53
2022/12/13 04:07:56;;;;;;;6.90;5.57;;;18.40;28.90;;;;;;5048997;28;20017;-56
2022/12/13 04:10:23;;;;;;;6.18;4.72;;;18.40;29.00;;;;;;5051973;28;20032;-55
2022/12/13 04:15:34;;;;;;;6.70;5.15;;;18.40;28.90;;;;;;5050666;28;20368;-55
2022/12/13 04:17:59;;;;;;;7.80;5.43;;;18.40;28.90;;;;;;5034313;28;20033;-52
2022/12/13 04:20:25;;;;;;;6.53;4.68;;;18.30;28.90;;;;;;5050818;28;20044;-55
2022/12/13 04:22:51;;;;;;;5.88;4.93;;;18.40;29.00;;;;;;5052945;28;20021;-56
2022/12/13 04:25:18;;;;;;;6.55;4.72;;;18.30;29.00;;;;;;5034714;28;20108;-56
2022/12/13 04:27:45;;;;;;;7.47;5.38;;;18.30;29.10;;;;;;5050395;28;20039;-54
2022/12/13 04:30:12;;;;;;;6.50;4.80;;;18.30;29.00;;;;;;5050880;28;20051;-51
2022/12/13 04:32:37;;;;;;;6.45;4.88;;;18.30;29.00;;;;;;5051872;28;20468;-54
2022/12/13 04:35:04;;;;;;;6.95;5.05;;;18.30;29.00;;;;;;5033732;28;20104;-54
2022/12/13 04:37:30;;;;;;;6.78;4.97;;;18.30;28.90;;;;;;5051932;28;20521;-54
2022/12/13 04:39:57;;;;;;;6.60;4.57;;;18.30;28.90;;;;;;5016485;28;20059;-58
2022/12/13 04:42:22;;;;;;;6.63;4.80;;;18.30;28.90;;;;;;5032016;28;20456;-50
2022/12/13 04:44:48;;;;;;;8.25;5.47;;;18.30;28.90;;;;;;5033930;28;20041;-51
2022/12/13 04:47:15;;;;;;;8.23;5.00;;;18.30;28.90;;;;;;5050151;28;20103;-53
2022/12/13 04:49:43;;;;;;;6.63;4.80;;;18.30;28.90;;;;;;5050880;28;20039;-55
2022/12/13 04:52:09;;;;;;;5.78;4.85;;;18.30;28.90;;;;;;5051369;28;20399;-55
2022/12/13 04:54:35;;;;;;;8.13;5.00;;;18.30;28.90;;;;;;5049273;28;20472;-56
2022/12/13 04:57:01;;;;;;;6.57;4.90;;;18.30;28.80;;;;;;5050788;28;20081;-57
2022/12/13 04:59:27;;;;;;;6.20;4.93;;;18.30;28.80;;;;;;5049905;28;20064;-56
2022/12/13 05:01:52;;;;;;;6.45;4.75;;;18.30;28.80;;;;;;5049749;28;20044;-55
2022/12/13 05:04:18;;;;;;;6.30;4.90;;;18.20;28.80;;;;;;5051262;28;20056;-57
2022/12/13 05:06:44;;;;;;;6.03;4.93;;;18.30;28.80;;;;;;5051150;28;20071;-56
2022/12/13 05:09:10;;;;;;;7.47;4.82;;;18.30;28.90;;;;;;5049296;28;20451;-54
2022/12/13 05:11:35;;;;;;;6.75;5.30;;;18.20;28.80;;;;;;5048770;28;20025;-53
2022/12/13 05:14:02;;;;;;;6.57;5.10;;;18.20;28.80;;;;;;5051378;28;21267;-56
2022/12/13 05:16:28;;;;;;;6.15;4.53;;;18.20;28.80;;;;;;5050218;28;20033;-56
2022/12/13 05:18:53;;;;;;;7.20;4.70;;;18.20;28.80;;;;;;5051968;28;20033;-56
2022/12/13 05:21:19;;;;;;;6.82;5.43;;;18.20;28.80;;;;;;5051339;28;20033;-55
2022/12/13 05:23:45;;;;;;;7.25;5.05;;;18.20;28.90;;;;;;5050914;28;20464;-56
2022/12/13 05:26:11;;;;;;;5.85;4.50;;;18.20;28.80;;;;;;5049934;28;20021;-55
2022/12/13 05:28:36;;;;;;;6.25;4.68;;;18.20;28.80;;;;;;5051743;28;20047;-54
2022/12/13 05:31:08;;;;;;;6.43;4.80;;;18.20;28.80;;;;;;5050222;28;20458;-56
2022/12/13 05:33:34;;;;;;;7.35;5.22;;;18.10;28.80;;;;;;5051209;28;20116;-53
2022/12/13 05:36:00;;;;;;;7.20;4.97;;;18.20;28.80;;;;;;5050967;28;20033;-55
2022/12/13 05:38:26;;;;;;;6.35;4.53;;;18.20;28.80;;;;;;5051627;28;20029;-54
2022/12/13 05:40:51;;;;;;;5.95;5.00;;;18.20;28.80;;;;;;5053942;28;20049;-50
2022/12/13 05:43:17;;;;;;;8.38;5.50;;;18.20;28.80;;;;;;5055615;28;20103;-52
2022/12/13 05:45:43;;;;;;;6.45;4.95;;;18.10;28.80;;;;;;5053938;28;20021;-58
2022/12/13 05:48:09;;;;;;;6.70;5.15;;;18.20;28.80;;;;;;5052293;28;20433;-53
2022/12/13 05:50:37;;;;;;;6.60;5.28;;;18.10;28.80;;;;;;5053973;28;20095;-56
2022/12/13 05:53:04;;;;;;;6.93;4.90;;;18.10;28.70;;;;;;5054353;28;20123;-55
2022/12/13 05:55:29;;;;;;;7.10;4.88;;;18.10;28.70;;;;;;5054322;28;20111;-56
2022/12/13 05:57:57;;;;;;;6.60;5.00;;;18.10;28.70;;;;;;5051337;28;20124;-56
2022/12/13 06:00:23;;;;;;;7.28;5.15;;;18.10;28.70;;;;;;5055242;28;20037;-58
2022/12/13 06:02:49;;;;;;;7.35;5.18;;;18.10;28.70;;;;;;5051876;28;20411;-59
2022/12/13 06:05:15;;;;;;;7.65;5.00;;;18.10;28.80;;;;;;5054245;28;20083;-54
2022/12/13 06:07:41;;;;;;;6.72;4.70;;;18.10;28.80;;;;;;5034949;28;20412;-55
2022/12/13 06:10:08;;;;;;;5.50;4.32;;;18.10;28.80;;;;;;5017970;28;20064;-54
2022/12/13 06:12:34;;;;;;;7.25;4.97;;;18.00;28.70;;;;;;5054782;28;20036;-55
2022/12/13 06:15:00;;;;;;;5.78;4.68;;;18.00;28.70;;;;;;5053862;28;20041;-56
2022/12/13 06:17:34;;;;;;;7.93;5.32;;;18.00;28.70;;;;;;5053510;28;20136;-54
2022/12/13 06:20:00;;;;;;;7.18;5.10;;;18.10;28.70;;;;;;5053514;28;20340;-53
2022/12/13 06:22:27;;;;;;;7.28;4.95;;;18.10;28.70;;;;;;5054278;28;20025;-56
2022/12/13 06:24:53;;;;;;;6.10;4.72;;;18.10;28.70;;;;;;5053104;28;20037;-55
2022/12/13 06:27:20;;;;;;;6.63;5.05;;;18.00;28.70;;;;;;5037269;28;20039;-52
2022/12/13 06:29:46;;;;;;;7.27;5.07;;;18.00;28.70;;;;;;5052710;28;20071;-54
2022/12/13 06:32:12;;;;;;;6.78;4.90;;;18.00;28.70;;;;;;5052494;28;20030;-53
2022/12/13 06:34:38;;;;;;;7.22;4.68;;;18.00;28.70;;;;;;5053422;28;20487;-53
2022/12/13 06:37:06;;;;;;;6.85;5.18;;;18.00;28.70;;;;;;5053531;28;20029;-54
2022/12/13 06:39:32;;;;;;;6.68;5.50;;;18.00;28.70;;;;;;5052650;28;20035;-53
2022/12/13 06:41:58;;;;;;;7.95;5.07;;;18.00;28.70;;;;;;5054183;28;20124;-57
2022/12/13 06:44:24;;;;;;;6.38;4.90;;;18.00;28.60;;;;;;5053153;28;20179;-57
2022/12/13 06:46:50;;;;;;;7.40;5.65;;;18.00;28.70;;;;;;5049083;28;20107;-54
2022/12/13 06:49:16;;;;;;;7.30;5.28;;;18.00;28.70;;;;;;5052671;28;20159;-55
2022/12/13 06:51:41;;;;;;;6.97;5.68;;;18.00;28.70;;;;;;5054227;28;20037;-55
2022/12/13 06:54:07;;;;;;;7.32;5.28;;;17.90;28.60;;;;;;5052408;28;20040;-54
2022/12/13 06:56:33;;;;;;;6.60;5.07;;;18.00;28.70;;;;;;5053690;28;20151;-57
2022/12/13 06:58:59;;;;;;;7.20;5.20;;;18.00;28.70;;;;;;5051355;28;20039;-54
2022/12/13 07:01:25;;;;;;;7.78;5.53;;;17.90;28.60;;;;;;5054140;28;20037;-53
2022/12/13 07:03:53;;;;;;;6.80;5.35;;;17.90;29.10;;;;;;5052289;28;20040;-52
2022/12/13 07:06:20;;;;;;;7.68;5.63;;;17.90;28.60;;;;;;5051522;28;20096;-54
2022/12/13 07:08:55;;;;;;;7.43;5.43;;;17.90;28.60;;;;;;5050147;28;20047;-51
2022/12/13 07:11:22;;;;;;;;;;;17.90;28.70;;;;;;5049729;28;20032;-55
2022/12/13 07:13:49;;;;;;;7.72;5.55;;;17.90;28.80;;;;;;5046567;28;19920;-56
2022/12/13 07:16:15;;;;;;;7.05;5.35;;;17.90;28.70;;;;;;5024406;28;20099;-57
2022/12/13 07:18:41;;;;;;;6.43;5.07;;;17.90;28.80;;;;;;5048622;28;20037;-55
2022/12/13 07:21:09;;;;;;;6.35;5.28;;;17.90;28.80;;;;;;5050518;28;20064;-56
2022/12/13 07:23:36;;;;;;;6.95;5.30;;;17.80;28.70;;;;;;5051266;28;20448;-58
2022/12/13 07:26:02;;;;;;;7.88;4.95;;;17.90;28.80;;;;;;5047487;28;20035;-54
2022/12/13 07:28:30;;;;;;;7.05;5.10;;;17.80;28.80;;;;;;5051064;28;20029;-55
2022/12/13 07:30:59;;;;;;;6.78;5.50;;;17.90;28.80;;;;;;5048669;28;20120;-57
2022/12/13 07:33:25;;;;;;;8.20;5.90;;;17.90;28.80;;;;;;5049090;28;20035;-54
2022/12/13 07:36:05;;;;;;;8.00;5.70;;;17.80;28.70;;;;;;5049904;28;20104;-57
2022/12/13 07:38:36;;;;;;;9.18;5.25;;;17.90;28.80;;;;;;5049088;28;20025;-58
2022/12/13 07:41:04;;;;;;;6.70;5.20;;;17.90;28.80;;;;;;5049441;28;20047;-56
2022/12/13 07:43:31;;;;;;;7.20;5.35;;;17.80;28.80;;;;;;5046583;28;20403;-55
2022/12/13 07:46:03;;;;;;;7.50;5.32;;;17.80;28.80;;;;;;5046256;28;20025;-54
2022/12/13 07:48:30;;;;;;;8.25;5.82;;;17.90;28.80;;;;;;5046350;28;20028;-55
2022/12/13 07:51:01;;;;;;;7.00;5.15;;;17.80;28.80;;;;;;5048751;28;20082;-56
2022/12/13 07:53:27;;;;;;;7.07;5.30;;;17.80;28.80;;;;;;5049784;28;20028;-54
2022/12/13 07:55:53;;;;;;;7.03;4.70;;;17.80;28.90;;;;;;5030576;28;20095;-53
2022/12/13 07:58:21;;;;;;;7.25;5.03;;;17.80;29.00;;;;;;5028258;28;20029;-54
2022/12/13 08:00:47;;;;;;;5.32;4.40;;;17.80;29.10;;;;;;5030797;28;20040;-55
2022/12/13 08:03:15;;;;;;;8.13;4.95;;;17.80;29.20;;;;;;5031318;28;20025;-56
2022/12/13 08:05:41;;;;;;;6.35;4.60;;;17.90;29.30;;;;;;5004382;28;20333;-55
2022/12/13 08:08:09;;;;;;;6.43;4.53;;;17.90;29.30;;;;;;5047270;28;20040;-58
2022/12/13 08:10:35;;;;;;;6.28;4.55;;;17.90;29.20;;;;;;5050907;28;20064;-53
2022/12/13 08:13:02;;;;;;;6.88;4.90;;;18.00;29.30;;;;;;5050607;28;20029;-53
2022/12/13 08:15:28;;;;;;;6.57;4.85;;;18.00;29.30;;;;;;5055192;28;20021;-54
2022/12/13 08:17:59;;;;;;;6.78;4.93;;;18.10;29.30;;;;;;5031862;28;20128;-57
2022/12/13 08:20:25;;;;;;;7.25;5.03;;;18.10;29.20;;;;;;5055481;28;20146;-55
2022/12/13 08:22:56;;;;;;;6.72;5.07;;;18.20;29.20;;;;;;5055619;28;20452;-55
2022/12/13 08:25:22;;;;;;;6.63;5.05;;;18.30;29.20;;;;;;5048841;28;20107;-56
2022/12/13 08:27:47;;;;;;;6.57;4.60;;;18.40;29.10;;;;;;5033493;28;20037;-59
2022/12/13 08:30:13;;;;;;;9.25;5.25;;;18.40;29.00;;;;;;5031855;28;20036;-57
2022/12/13 08:32:39;;;;;;;6.82;4.93;;;18.50;29.00;;;;;;5049190;28;20075;-55
2022/12/13 08:35:06;;;;;;;7.70;5.03;;;18.50;28.90;;;;;;5049440;28;20452;-54
2022/12/13 08:37:31;;;;;;;6.55;5.18;;;18.60;28.90;;;;;;5048182;28;20033;-57
2022/12/13 08:39:57;;;;;;;6.18;4.90;;;18.70;28.90;;;;;;5049230;28;20511;-55
2022/12/13 08:42:24;;;;;;;10.93;5.53;;;18.70;28.80;;;;;;5031639;28;20108;-55
2022/12/13 08:44:51;;;;;;;7.80;4.78;;;18.80;28.80;;;;;;5047617;28;20048;-55
2022/12/13 08:47:20;;;;;;;9.18;5.43;;;18.90;28.80;;;;;;5046672;28;20108;-53
2022/12/13 08:49:46;;;;;;;7.05;5.30;;;19.00;28.80;;;;;;5048981;28;20574;-59
2022/12/13 08:52:12;;;;;;;8.10;5.47;;;19.00;28.70;;;;;;5049743;28;20123;-55
2022/12/13 08:54:38;;;;;;;5.78;4.63;;;19.10;28.60;;;;;;5036536;28;20124;-53
2022/12/13 08:57:04;;;;;;;7.00;5.32;;;19.10;28.50;;;;;;5046548;28;20060;-59
2022/12/13 08:59:31;;;;;;;6.95;4.97;;;19.20;28.50;;;;;;5043977;28;20514;-52
2022/12/13 09:01:57;;;;;;;7.95;6.30;;;19.30;28.50;;;;;;5019613;28;20052;-55
2022/12/13 09:04:23;;;;;;;7.45;5.38;;;19.30;28.90;;;;;;5026530;28;20418;-57
2022/12/13 09:06:48;;;;;;;7.93;5.15;;;19.40;28.40;;;;;;5049737;28;20120;-56
2022/12/13 09:09:15;;;;;;;8.60;5.55;;;19.40;28.30;;;;;;5031332;28;20436;-53
2022/12/13 09:11:41;;;;;;;7.95;5.70;;;19.50;28.40;;;;;;5045397;28;20037;-56
2022/12/13 09:14:07;;;;;;;7.90;5.10;;;19.50;28.80;;;;;;5046945;28;20060;-57
2022/12/13 09:16:35;;;;;;;7.20;5.88;;;19.60;28.30;;;;;;5047213;28;20075;-55
2022/12/13 09:19:01;;;;;;;8.20;5.80;;;19.70;28.30;;;;;;5056736;28;20090;-52
2022/12/13 09:21:28;;;;;;;8.30;5.97;;;19.70;28.20;;;;;;5058825;28;20052;-58
2022/12/13 09:23:54;;;;;;;8.23;6.03;;;19.80;28.20;;;;;;5059267;28;20029;-53
2022/12/13 09:26:20;;;;;;;7.07;5.63;;;19.80;28.10;;;;;;5039336;28;20473;-55
2022/12/13 09:28:46;;;;;;;7.40;5.70;;;19.90;28.10;;;;;;5058364;28;20029;-55
2022/12/13 09:31:16;;;;;;;7.88;5.63;;;19.90;28.10;;;;;;5040911;28;20040;-56
2022/12/13 09:33:43;;;;;;;8.20;6.10;;;20.00;28.10;;;;;;5041221;28;20336;-55
2022/12/13 09:36:16;;;;;;;8.77;6.28;;;20.00;28.00;;;;;;5058784;28;20380;-54
2022/12/13 09:38:42;;;;;;;7.68;5.65;;;20.00;28.00;;;;;;5058983;28;20120;-50
2022/12/13 09:41:35;;;;;;;7.28;5.82;;;20.10;28.00;;;;;;5040637;28;20041;-56
2022/12/13 09:44:13;;;;;;;7.18;6.07;;;20.20;27.90;;;;;;5058403;28;20025;-53
2022/12/13 09:46:44;;;;;;;8.20;6.32;;;20.20;27.90;;;;;;5058274;28;20044;-57
2022/12/13 09:49:17;;;;;;;7.50;6.13;;;20.20;27.80;;;;;;5038784;28;20040;-57
2022/12/13 09:51:47;;;;;;;9.63;6.95;;;20.20;27.80;;;;;;5040096;28;20068;-56
2022/12/13 09:54:19;;;;;;;8.60;6.38;;;20.20;27.80;;;;;;5057379;28;20490;-56
2022/12/13 09:56:49;;;;;;;8.35;6.22;;;20.30;27.70;;;;;;5058318;28;20452;-53
2022/12/13 09:59:17;;;;;;;7.93;6.35;;;20.30;27.70;;;;;;5057902;28;20025;-51
2022/12/13 10:01:44;;;;;;;8.90;6.47;;;20.30;27.70;;;;;;5057649;28;20033;-55
2022/12/13 10:04:14;;;;;;;8.15;6.13;;;20.30;27.70;;;;;;5057276;28;20033;-56
2022/12/13 10:06:40;;;;;;;9.90;6.80;;;20.40;27.70;;;;;;5040628;28;20124;-56
2022/12/13 10:09:10;;;;;;;7.38;6.07;;;20.30;27.60;;;;;;5024133;28;20321;-55
2022/12/13 10:11:37;;;;;;;8.50;6.97;;;20.40;27.60;;;;;;5020580;28;20065;-53
2022/12/13 10:14:18;;;;;;;8.27;6.65;;;20.40;27.60;;;;;;5037626;28;20049;-56
2022/12/13 10:16:49;;;;;;;9.15;6.40;;;20.40;27.60;;;;;;5051044;28;20039;-50
2022/12/13 10:19:23;;;;;;;7.60;5.93;;;20.40;27.60;;;;;;5039269;28;20041;-54
2022/12/13 10:21:50;;;;;;;6.97;5.88;;;20.40;27.60;;;;;;5020055;28;20068;-52
2022/12/13 10:24:29;;;;;;;8.90;6.72;;;20.40;27.60;;;;;;5037163;28;20044;-55
2022/12/13 10:27:11;;;;;;;8.52;6.50;;;20.40;27.60;;;;;;5037296;28;20037;-52
2022/12/13 10:30:07;;;;;;;7.55;5.93;;;20.40;27.60;;;;;;5055759;28;20467;-55
2022/12/13 10:32:56;;;;;;;7.85;6.05;;;20.40;27.60;;;;;;5054401;28;20044;-51
2022/12/13 10:35:30;;;;;;;8.93;7.20;;;20.30;27.50;;;;;;5037245;28;20461;-53
2022/12/13 10:37:58;;;;;;;9.05;7.15;;;20.30;27.50;;;;;;5044030;28;20460;-55
2022/12/13 10:40:33;;;;;;;8.82;6.53;;;20.30;27.50;;;;;;5056809;28;20033;-56
2022/12/13 10:43:06;;;;;;;8.07;6.43;;;20.30;27.50;;;;;;5057794;28;20127;-56
2022/12/13 10:45:32;;;;;;;7.65;6.50;;;20.30;27.50;;;;;;5039527;28;20043;-56
2022/12/13 10:47:58;;;;;;;8.63;7.00;;;20.30;27.50;;;;;;5056047;28;20065;-57
2022/12/13 10:50:27;;;;;;;7.88;6.68;;;20.30;27.50;;;;;;5033874;28;20122;-55
2022/12/13 10:52:55;;;;;;;8.60;6.95;;;20.20;27.50;;;;;;5020551;28;20088;-55
2022/12/13 10:55:26;;;;;;;8.90;6.63;;;20.20;27.40;;;;;;5037175;28;20121;-56
2022/12/13 10:57:55;;;;;;;9.20;7.07;;;20.20;27.40;;;;;;5037023;28;20350;-58
2022/12/13 11:00:34;;;;;;;10.68;7.60;;;20.20;27.40;;;;;;5041018;28;20032;-57
2022/12/13 11:03:01;;;;;;;8.57;6.65;;;20.20;27.40;;;;;;5037353;28;20056;-56
2022/12/13 11:05:31;;;;;;;9.23;7.25;;;20.20;27.50;;;;;;5046827;28;20025;-58
2022/12/13 11:08:19;;;;;;;11.73;8.20;;;20.20;27.50;;;;;;5053622;28;20029;-54
2022/12/13 11:10:54;;;;;;;11.48;8.13;;;20.10;27.70;;;;;;5046690;28;20033;-53
2022/12/13 11:13:45;;;;;;;12.13;9.77;;;20.10;27.90;;;;;;5055359;28;20053;-56
2022/12/13 11:16:30;;;;;;;12.25;9.52;;;20.10;28.00;;;;;;5053946;28;20078;-56
2022/12/13 11:19:01;;;;;;;15.48;10.00;;;20.10;28.30;;;;;;5052078;28;20108;-58
2022/12/13 11:21:33;;;;;;;15.02;11.65;;;20.10;28.60;;;;;;5055178;28;20044;-56
2022/12/13 11:24:04;;;;;;;14.75;11.55;;;20.10;28.90;;;;;;5055960;28;20449;-62
2022/12/13 11:26:34;;;;;;;15.52;11.90;;;20.10;29.00;;;;;;5056061;28;20438;-63
2022/12/13 11:29:20;;;;;;;16.17;11.70;;;20.10;29.20;;;;;;5055792;28;20087;-59
2022/12/13 11:32:09;;;;;;;17.02;11.35;;;20.10;29.30;;;;;;5056453;28;20029;-60
2022/12/13 11:34:53;;;;;;;17.08;12.13;;;20.10;29.30;;;;;;5056144;28;20095;-57
2022/12/13 11:37:37;;;;;;;13.90;11.77;;;20.10;29.60;;;;;;5037409;28;20033;-56
2022/12/13 11:40:36;;;;;;;16.58;11.90;;;20.30;29.10;;;;;;5055955;28;20047;-58
2022/12/13 11:43:15;;;;;;;16.58;12.32;;;20.30;28.80;;;;;;5031358;28;20045;-57
2022/12/13 11:45:47;;;;;;;15.75;12.38;;;20.40;28.70;;;;;;5062091;28;20386;-59
2022/12/13 11:48:41;;;;;;;15.05;11.65;;;20.50;28.70;;;;;;5017512;28;20524;-62
2022/12/13 11:51:10;;;;;;;19.77;12.60;;;20.60;28.70;;;;;;5038137;28;20044;-59
2022/12/13 11:53:45;;;;;;;16.98;12.23;;;20.70;28.70;;;;;;5050500;28;20029;-56
2022/12/13 11:56:25;;;;;;;16.23;12.30;;;20.80;28.60;;;;;;5050277;28;20333;-58
2022/12/13 11:59:10;;;;;;;15.10;11.27;;;20.90;28.60;;;;;;5052900;28;20040;-56
2022/12/13 12:01:45;;;;;;;15.13;11.30;;;21.00;28.50;;;;;;5052975;28;20036;-58
2022/12/13 12:04:15;;;;;;;14.27;11.57;;;21.10;28.40;;;;;;5051407;28;20107;-60
2022/12/13 12:06:57;;;;;;;14.48;10.80;;;21.20;28.30;;;;;;5052604;28;20024;-58
2022/12/13 12:09:26;;;;;;;14.00;10.75;;;21.20;28.30;;;;;;5054080;28;20443;-58
2022/12/13 12:11:59;;;;;;;14.85;10.73;;;21.30;28.40;;;;;;5054655;28;20124;-59
2022/12/13 12:14:47;;;;;;;14.45;11.25;;;21.40;28.40;;;;;;5053173;28;20048;-57
2022/12/13 12:17:17;;;;;;;16.15;11.70;;;21.40;28.30;;;;;;5051062;28;20036;-60
2022/12/13 12:19:47;;;;;;;13.85;10.27;;;21.40;28.30;;;;;;5048425;28;20048;-60
2022/12/13 12:22:38;;;;;;;15.50;11.57;;;21.50;28.30;;;;;;5032139;28;20122;-53
2022/12/13 12:25:42;;;;;;;15.60;11.52;;;21.50;28.40;;;;;;5052696;28;20464;-56
2022/12/13 12:28:50;;;;;;;13.20;11.07;;;21.50;28.40;;;;;;5051812;28;20091;-61
2022/12/13 12:31:28;;;;;;;14.38;11.32;;;21.60;28.40;;;;;;5052833;28;20044;-58
2022/12/13 12:34:15;;;;;;;15.45;11.77;;;21.60;28.40;;;;;;5052895;28;20017;-56
2022/12/13 12:36:43;;;;;;;15.23;11.70;;;21.70;28.50;;;;;;5051915;28;20037;-60
2022/12/13 12:39:34;;;;;;;14.77;11.73;;;21.70;28.40;;;;;;5053411;28;20040;-61
2022/12/13 12:42:30;;;;;;;14.77;10.85;;;21.70;28.30;;;;;;5034690;28;20045;-62
2022/12/13 12:45:15;;;;;;;15.45;11.07;;;21.70;28.10;;;;;;5030893;28;20029;-60
2022/12/13 12:48:10;;;;;;;14.52;11.75;;;21.70;28.10;;;;;;5051019;28;20037;-60
2022/12/13 12:50:52;;;;;;;16.47;11.67;;;21.70;28.00;;;;;;5045632;28;20074;-59
2022/12/13 12:53:51;;;;;;;14.10;11.32;;;21.80;28.00;;;;;;5052363;28;20216;-59
2022/12/13 12:56:58;;;;;;;13.57;10.88;;;21.70;27.90;;;;;;5029152;28;20025;-60
2022/12/13 12:59:39;;;;;;;12.15;9.88;;;21.80;27.90;;;;;;4986572;28;20102;-60
2022/12/13 13:02:19;;;;;;;13.00;10.05;;;21.70;27.80;;;;;;5055392;28;20033;-61
2022/12/13 13:04:56;;;;;;;13.77;10.23;;;21.80;27.70;;;;;;5048761;28;20044;-59
2022/12/13 13:07:33;;;;;;;12.60;10.45;;;21.80;27.70;;;;;;5048380;28;20094;-59
2022/12/13 13:10:01;;;;;;;12.55;9.68;;;21.80;27.60;;;;;;5054743;28;20116;-61